Tuesday, May 21, 2019, 2:48 PM EDT
Back to Local

KIPT, Williamsport-lycoming County

Location: Montoursville, PA, United States Lat: 41.25
Local Time: 2:48 PM EDT (18:48 GMT) Lon: -76.917
Time Zone: US/Eastern Elev: 528 ft

Show me the last for .
Show Decoded

2019-05-21 13:54 METAR KIPT 211754Z 33013G20KT 10SM CLR 21/02 A3001 RMK AO2 SLP161 T02060022
                 10206 20111 56013 =
2019-05-21 12:54 METAR KIPT 211654Z 33013G19KT 10SM CLR 19/02 A3003 RMK AO2 SLP167 T01890022 =
2019-05-21 11:54 METAR KIPT 211554Z VRB05G15KT 10SM CLR 18/03 A3003 RMK AO2 SLP167 T01830033 =
2019-05-21 10:54 METAR KIPT 211454Z 32014KT 10SM CLR 16/02 A3005 RMK AO2 SLP173 T01610022 50004 =
2019-05-21 09:54 METAR KIPT 211354Z 29008KT 10SM CLR 14/03 A3005 RMK AO2 SLP174 T01440028 =
2019-05-21 08:54 METAR KIPT 211254Z 30011KT 10SM CLR 13/03 A3005 RMK AO2 SLP173 T01280028 =
2019-05-21 07:54 METAR KIPT 211154Z 30012G18KT 10SM CLR 11/02 A3004 RMK AO2 SLP170 T01110022
                 10144 20094 51019 =
2019-05-21 06:54 METAR KIPT 211054Z 32010KT 10SM CLR 10/03 A3003 RMK AO2 SLP169 T01000028 =
2019-05-21 05:54 METAR KIPT 210954Z AUTO 29011KT 10SM FEW044 11/02 A3000 RMK AO2 SLP157 T01060017
                 =
2019-05-21 04:54 METAR KIPT 210854Z AUTO 30014G22KT 10SM OVC044 12/02 A2998 RMK AO2 SLP149
                 T01170022 53017 =
2019-05-21 03:54 METAR KIPT 210754Z AUTO 29012KT 10SM OVC044 13/03 A2996 RMK AO2 SLP143 T01280033
                 =
2019-05-21 02:54 METAR KIPT 210654Z AUTO 31010G16KT 10SM OVC044 13/04 A2994 RMK AO2 SLP136
                 T01330044 =
2019-05-21 01:54 METAR KIPT 210554Z AUTO 30011G21KT 10SM OVC048 14/04 A2993 RMK AO2 SLP132
                 T01440044 10244 20144 53004 =
2019-05-21 00:54 METAR KIPT 210454Z AUTO 30011KT 10SM BKN050 15/05 A2992 RMK AO2 SLP128 T01500050
                 402780150 =
2019-05-20 23:54 METAR KIPT 210354Z AUTO 29010KT 10SM OVC055 16/07 A2992 RMK AO2 SLP129 T01610067
                 =
2019-05-20 22:54 METAR KIPT 210254Z AUTO 31009KT 10SM FEW045 OVC060 17/08 A2992 RMK AO2 SLP128
                 T01720078 51048 =
2019-05-20 21:54 METAR KIPT 210154Z 32012G20KT 10SM OVC060 18/09 A2989 RMK AO2 SLP120 T01830089 =
2019-05-20 20:54 METAR KIPT 210054Z 30012KT 10SM BKN070 21/10 A2982 RMK AO2 PRESRR SLP096
                 T02110100 =
2019-05-20 19:54 METAR KIPT 202354Z 28013G22KT 10SM BKN075 24/09 A2977 RMK AO2 SLP077 T02440094
                 10278 20239 53010 =
2019-05-20 18:54 METAR KIPT 202254Z 25013G23KT 10SM FEW070 BKN090 25/11 A2975 RMK AO2 SLP071
                 T02500106 =
2019-05-20 17:54 METAR KIPT 202154Z 24011G19KT 10SM FEW065 SCT090 26/12 A2974 RMK AO2 PK WND
                 26026/2135 SLP067 T02610117 =
2019-05-20 16:54 METAR KIPT 202054Z 26017G25KT 10SM CLR 27/10 A2974 RMK AO2 SLP067 T02670100
                 58008 =
2019-05-20 15:54 METAR KIPT 201954Z 25014G23KT 10SM FEW070 28/12 A2975 RMK AO2 PK WND 25028/1855
                 SLP070 T02780122 =
2019-05-20 14:54 METAR KIPT 201854Z 26021G27KT 10SM FEW070 27/11 A2976 RMK AO2 PK WND 25027/1853
                 SLP074 T02670106 =

Support USWX by starting your Amazon purchase here.